Time;durP1;ratioP1;P1;durP2;ratioP2;P2;SDS_P1;SDS_P2;PMS_P1;PMS_P2;Temp;Humidity;BMP_temperature;BMP_pressure;BME280_temperature;BME280_humidity;BME280_pressure;Samples;Min_cycle;Max_cycle;Signal;HPM_P1;HPM_P2
2023/07/21 06:44:48;;;;;;;8.38;2.40;;;21.30;99.90;;;;;;5623052;23;20127;-80
2023/07/21 06:47:16;;;;;;;4.72;2.50;;;21.30;99.90;;;;;;4878790;29;20420;-84
2023/07/21 06:49:42;;;;;;;6.93;2.80;;;21.30;99.90;;;;;;4866298;29;20052;-83
2023/07/21 06:52:09;;;;;;;6.85;2.60;;;21.30;99.90;;;;;;4881197;29;20053;-83
2023/07/21 06:54:38;;;;;;;4.57;2.25;;;21.30;99.90;;;;;;4866178;29;20045;-83
2023/07/21 06:57:05;;;;;;;6.93;2.05;;;21.30;99.90;;;;;;4860719;29;20137;-83
2023/07/21 06:59:33;;;;;;;3.38;2.00;;;21.40;99.90;;;;;;4858840;29;20050;-83
2023/07/21 07:02:00;;;;;;;3.83;1.83;;;21.40;99.90;;;;;;4860692;29;20056;-81
2023/07/21 07:04:27;;;;;;;3.38;1.92;;;21.40;99.90;;;;;;4859455;29;20073;-82
2023/07/21 07:06:55;;;;;;;3.13;1.83;;;21.40;99.90;;;;;;4860035;29;20054;-82
2023/07/21 07:09:23;;;;;;;3.40;1.85;;;21.40;99.90;;;;;;4865733;29;20110;-82
2023/07/21 07:11:51;;;;;;;5.68;1.77;;;21.40;99.90;;;;;;4860068;29;20049;-81
2023/07/21 07:14:18;;;;;;;5.13;2.30;;;21.40;99.90;;;;;;4860981;29;20056;-82
2023/07/21 07:16:44;;;;;;;1.73;1.40;;;21.30;99.90;;;;;;4860558;29;20057;-83
2023/07/21 07:19:11;;;;;;;4.55;1.88;;;21.20;99.90;;;;;;4865347;29;20053;-83
2023/07/21 07:21:38;;;;;;;6.80;2.10;;;21.20;99.90;;;;;;4861513;29;20054;-84
2023/07/21 07:24:05;;;;;;;2.45;1.75;;;21.20;99.90;;;;;;4864422;29;20053;-83
2023/07/21 07:26:33;;;;;;;4.55;2.00;;;21.10;99.90;;;;;;4866219;29;20137;-83
2023/07/21 07:29:00;;;;;;;2.78;1.45;;;21.10;99.90;;;;;;4867626;29;20431;-84
2023/07/21 07:31:26;;;;;;;3.95;1.75;;;21.10;99.90;;;;;;4865307;29;20049;-85
2023/07/21 07:33:53;;;;;;;4.80;2.20;;;21.00;99.90;;;;;;4867885;29;20079;-84
2023/07/21 07:36:20;;;;;;;3.70;1.77;;;21.10;99.90;;;;;;4872887;29;20064;-84
2023/07/21 07:38:47;;;;;;;2.60;1.52;;;21.10;99.90;;;;;;4884419;29;20058;-85
2023/07/21 07:41:14;;;;;;;3.38;1.58;;;21.20;99.90;;;;;;4870222;29;20049;-85
2023/07/21 07:43:41;;;;;;;3.22;2.00;;;21.20;99.90;;;;;;4866778;29;20053;-85
2023/07/21 07:46:08;;;;;;;4.00;1.67;;;21.20;99.90;;;;;;4865297;29;20050;-84
2023/07/21 07:48:35;;;;;;;4.00;1.48;;;21.30;99.90;;;;;;4862336;29;20109;-84
2023/07/21 07:51:06;;;;;;;4.50;1.40;;;21.30;99.90;;;;;;4864410;29;20061;-85
2023/07/21 07:53:33;;;;;;;3.35;1.58;;;21.30;99.90;;;;;;4863465;29;20046;-84
2023/07/21 07:56:01;;;;;;;2.78;1.20;;;21.40;99.90;;;;;;4864617;29;20097;-84
2023/07/21 07:58:28;;;;;;;3.75;1.23;;;21.50;99.90;;;;;;4863915;29;20054;-85
2023/07/21 08:00:56;;;;;;;2.45;1.27;;;21.50;99.90;;;;;;4862678;29;20474;-84
2023/07/21 08:03:23;;;;;;;4.05;1.58;;;21.60;99.90;;;;;;4864867;29;20094;-84
2023/07/21 08:05:51;;;;;;;7.28;1.63;;;21.70;99.90;;;;;;4865610;29;20057;-85
2023/07/21 08:08:20;;;;;;;3.92;1.50;;;21.70;99.90;;;;;;4867405;29;20049;-86
2023/07/21 08:10:46;;;;;;;3.03;1.50;;;21.70;99.90;;;;;;4865087;29;20054;-84
2023/07/21 08:13:14;;;;;;;6.03;1.77;;;21.70;99.90;;;;;;4867665;29;20045;-82
2023/07/21 08:15:42;;;;;;;4.63;1.58;;;21.70;99.90;;;;;;4862602;29;20359;-84
2023/07/21 08:18:10;;;;;;;5.10;1.45;;;21.80;99.90;;;;;;4875963;29;20053;-82
2023/07/21 08:20:38;;;;;;;3.17;1.38;;;21.70;99.90;;;;;;4860158;29;20049;-82
2023/07/21 08:23:05;;;;;;;3.67;1.52;;;21.70;99.90;;;;;;4858661;29;20054;-83
2023/07/21 08:25:44;;;;;;;2.00;1.40;;;21.80;99.90;;;;;;4862284;29;20474;-84
2023/07/21 08:28:11;;;;;;;4.78;1.58;;;21.70;99.90;;;;;;4864177;29;20322;-84
2023/07/21 08:30:38;;;;;;;2.83;1.25;;;21.80;99.90;;;;;;4862400;29;20049;-84
2023/07/21 08:33:23;;;;;;;3.83;1.58;;;21.80;99.90;;;;;;4862580;29;20073;-82
2023/07/21 08:35:50;;;;;;;6.38;1.30;;;21.90;99.90;;;;;;4862899;29;20053;-82
2023/07/21 08:38:17;;;;;;;6.50;3.22;;;21.90;99.90;;;;;;4861253;29;20053;-83
2023/07/21 08:40:52;;;;;;;9.07;3.03;;;21.90;99.90;;;;;;4879292;29;20057;-83
2023/07/21 08:43:19;;;;;;;10.00;1.90;;;22.00;99.90;;;;;;4860068;29;20118;-83
2023/07/21 08:45:49;;;;;;;3.88;1.30;;;22.10;99.90;;;;;;4857206;29;20114;-82
2023/07/21 08:48:17;;;;;;;4.22;1.60;;;22.20;99.90;;;;;;4861973;29;21626;-83
2023/07/21 08:50:48;;;;;;;5.85;2.65;;;22.30;99.90;;;;;;4862879;29;20057;-83
2023/07/21 08:53:15;;;;;;;3.58;1.70;;;22.40;99.90;;;;;;4873942;29;20674;-83
2023/07/21 08:55:42;;;;;;;3.05;1.60;;;22.50;99.90;;;;;;4861851;29;20085;-83
2023/07/21 08:58:10;;;;;;;3.20;1.30;;;22.60;99.90;;;;;;4861453;29;20048;-83
2023/07/21 09:00:37;;;;;;;2.38;1.60;;;22.80;99.90;;;;;;4860486;29;20045;-84
2023/07/21 09:03:04;;;;;;;5.55;1.30;;;22.90;99.90;;;;;;4860597;29;20053;-83
2023/07/21 09:05:31;;;;;;;4.85;1.23;;;23.10;99.90;;;;;;4861357;29;20503;-84
2023/07/21 09:07:58;;;;;;;2.97;1.15;;;23.30;99.90;;;;;;4857967;29;20133;-84
2023/07/21 09:10:34;;;;;;;4.35;1.48;;;23.40;99.90;;;;;;4861695;29;20053;-83
2023/07/21 09:13:01;;;;;;;2.80;1.40;;;23.50;99.90;;;;;;4866755;29;20057;-83
2023/07/21 09:15:28;;;;;;;5.70;1.42;;;23.60;99.90;;;;;;4858741;29;20053;-84
2023/07/21 09:17:55;;;;;;;4.35;1.20;;;23.80;99.90;;;;;;4855848;29;20050;-84
2023/07/21 09:20:22;;;;;;;7.43;1.40;;;23.80;99.90;;;;;;4860318;29;20058;-82
2023/07/21 09:22:49;;;;;;;4.45;1.40;;;23.90;99.90;;;;;;4859344;29;20557;-83
2023/07/21 09:25:20;;;;;;;5.85;1.52;;;23.90;99.90;;;;;;4856024;29;20516;-84
2023/07/21 09:27:55;;;;;;;2.08;0.98;;;24.00;99.90;;;;;;4871091;29;20144;-83
2023/07/21 09:30:22;;;;;;;1.88;1.05;;;24.10;99.90;;;;;;4870662;29;20056;-84
2023/07/21 09:32:54;;;;;;;6.50;1.23;;;24.10;99.90;;;;;;4859468;29;20057;-84
2023/07/21 09:35:22;;;;;;;2.20;1.42;;;24.30;99.90;;;;;;4861565;29;20057;-83
2023/07/21 09:37:50;;;;;;;2.55;1.23;;;24.40;99.90;;;;;;4874687;29;20524;-83
2023/07/21 09:40:27;;;;;;;3.08;1.30;;;24.40;99.90;;;;;;4872840;29;20045;-83
2023/07/21 09:42:55;;;;;;;3.92;1.35;;;24.50;99.90;;;;;;4873835;29;20049;-83
2023/07/21 09:45:24;;;;;;;5.18;1.30;;;24.70;99.90;;;;;;4860192;29;20041;-82
2023/07/21 09:47:51;;;;;;;5.18;1.80;;;24.80;99.90;;;;;;4858397;29;20605;-84
2023/07/21 09:50:18;;;;;;;3.15;1.00;;;24.90;99.90;;;;;;4861406;29;20049;-84
2023/07/21 09:52:47;;;;;;;4.85;1.23;;;25.00;99.90;;;;;;4857861;29;20045;-83
2023/07/21 09:55:16;;;;;;;3.60;1.02;;;25.00;99.90;;;;;;4858833;29;20053;-84
2023/07/21 09:57:46;;;;;;;2.22;1.10;;;24.90;99.90;;;;;;4859815;29;20101;-84
2023/07/21 10:00:15;;;;;;;3.47;1.35;;;24.90;99.90;;;;;;4857525;29;20045;-83
2023/07/21 10:02:47;;;;;;;3.97;1.80;;;24.90;99.90;;;;;;4860743;29;20049;-83
2023/07/21 10:05:15;;;;;;;1.85;1.20;;;24.90;99.90;;;;;;4858788;29;20050;-84
2023/07/21 10:07:47;;;;;;;4.05;1.30;;;24.80;99.90;;;;;;4859982;29;20073;-84
2023/07/21 10:10:16;;;;;;;6.35;1.80;;;24.80;99.90;;;;;;4855027;29;20066;-84
2023/07/21 10:12:52;;;;;;;3.78;1.30;;;24.80;99.90;;;;;;4858414;29;20132;-84
2023/07/21 10:15:21;;;;;;;6.10;1.30;;;24.70;99.90;;;;;;4859026;29;20057;-84
2023/07/21 10:18:06;;;;;;;5.03;1.23;;;24.70;99.90;;;;;;4860834;29;20054;-84
2023/07/21 10:20:50;;;;;;;5.03;1.60;;;24.60;99.90;;;;;;4859568;29;20049;-83
2023/07/21 10:23:26;;;;;;;3.50;1.33;;;24.60;99.90;;;;;;4856851;29;20065;-83
2023/07/21 10:25:58;;;;;;;5.72;1.20;;;24.50;99.90;;;;;;4859813;29;20054;-82
2023/07/21 10:28:37;;;;;;;4.50;1.42;;;24.50;99.90;;;;;;4857383;29;20474;-83
2023/07/21 10:31:29;;;;;;;3.72;1.77;;;24.40;99.90;;;;;;4857714;29;20054;-83
2023/07/21 10:34:09;;;;;;;4.72;1.58;;;24.40;99.90;;;;;;4859619;29;20121;-83
2023/07/21 10:36:51;;;;;;;8.05;1.27;;;24.30;99.90;;;;;;4868894;29;20664;-83
2023/07/21 10:39:29;;;;;;;6.68;2.10;;;24.30;99.90;;;;;;4868606;29;20083;-84
2023/07/21 10:41:58;;;;;;;5.30;1.70;;;24.30;99.90;;;;;;4860442;29;20513;-84
2023/07/21 10:44:35;;;;;;;5.25;1.65;;;24.20;99.90;;;;;;4862943;29;20077;-84
2023/07/21 10:47:03;;;;;;;5.28;1.75;;;24.20;99.90;;;;;;4857937;29;20054;-84
2023/07/21 10:49:30;;;;;;;8.27;1.77;;;24.20;99.90;;;;;;4858873;29;20051;-84
2023/07/21 10:51:57;;;;;;;5.20;1.83;;;24.30;99.90;;;;;;4857438;29;20121;-83
2023/07/21 10:54:24;;;;;;;5.40;1.50;;;24.30;99.90;;;;;;4857806;29;20052;-84
2023/07/21 10:56:51;;;;;;;3.90;1.60;;;24.40;99.90;;;;;;4855173;29;20053;-84
2023/07/21 10:59:19;;;;;;;8.20;1.40;;;24.50;99.90;;;;;;4879825;29;20513;-84
2023/07/21 11:01:51;;;;;;;5.78;1.50;;;24.60;99.90;;;;;;4857182;29;20436;-84
2023/07/21 11:04:20;;;;;;;7.50;2.22;;;24.70;99.90;;;;;;4856326;29;20061;-84
2023/07/21 11:06:58;;;;;;;5.63;1.67;;;24.70;99.90;;;;;;4856968;29;20053;-84
2023/07/21 11:09:26;;;;;;;2.95;1.92;;;24.70;99.90;;;;;;4854987;29;20061;-84
2023/07/21 11:11:54;;;;;;;5.35;2.28;;;24.70;99.90;;;;;;4869855;29;20045;-84
2023/07/21 11:14:24;;;;;;;5.38;1.60;;;24.80;99.90;;;;;;4859156;29;20223;-84
2023/07/21 11:17:02;;;;;;;5.63;1.60;;;24.80;99.90;;;;;;4858548;29;20056;-85
2023/07/21 11:19:31;;;;;;;3.30;1.42;;;24.80;99.90;;;;;;4861288;29;20045;-84
2023/07/21 11:21:58;;;;;;;3.47;1.83;;;24.90;99.90;;;;;;4862354;29;20057;-84
2023/07/21 11:24:28;;;;;;;4.28;1.88;;;24.90;99.90;;;;;;4872547;29;20056;-83
2023/07/21 11:27:06;;;;;;;3.25;2.05;;;24.90;99.90;;;;;;4857548;29;20053;-84
2023/07/21 11:29:39;;;;;;;3.17;1.60;;;24.90;99.90;;;;;;4859300;29;20521;-84
2023/07/21 11:32:17;;;;;;;5.00;1.95;;;24.90;99.90;;;;;;4873810;29;20586;-83
2023/07/21 11:34:43;;;;;;;3.75;1.58;;;24.90;99.90;;;;;;4858948;29;20050;-83
2023/07/21 11:37:15;;;;;;;2.47;1.52;;;24.90;99.90;;;;;;4873547;29;20443;-84
2023/07/21 11:39:42;;;;;;;2.33;1.40;;;24.90;99.90;;;;;;4859342;29;20057;-84
2023/07/21 11:42:10;;;;;;;4.63;1.85;;;24.90;99.90;;;;;;4862419;29;20058;-83
2023/07/21 11:44:38;;;;;;;5.13;1.88;;;25.00;99.90;;;;;;4862969;29;20045;-84
2023/07/21 11:47:10;;;;;;;5.18;1.73;;;25.10;99.90;;;;;;4863237;29;20136;-84
2023/07/21 11:49:45;;;;;;;2.88;1.92;;;25.20;99.90;;;;;;4861933;29;20051;-83
2023/07/21 11:52:24;;;;;;;3.92;1.88;;;25.30;99.90;;;;;;4858434;29;20053;-83
2023/07/21 11:54:51;;;;;;;3.80;2.03;;;25.40;99.90;;;;;;4862042;29;20045;-84
2023/07/21 11:57:18;;;;;;;4.63;2.00;;;25.40;99.90;;;;;;4865934;29;20056;-83
2023/07/21 11:59:45;;;;;;;5.40;1.80;;;25.50;99.90;;;;;;4865015;29;20120;-82
2023/07/21 12:02:16;;;;;;;4.10;1.90;;;25.40;99.90;;;;;;4860826;29;20065;-84
2023/07/21 12:04:43;;;;;;;3.33;2.60;;;25.40;99.90;;;;;;4877406;29;20137;-83
2023/07/21 12:07:10;;;;;;;5.93;2.60;;;25.30;99.90;;;;;;4877249;29;20069;-84
2023/07/21 12:09:38;;;;;;;3.40;1.95;;;25.30;99.90;;;;;;4860948;29;20049;-83
2023/07/21 12:12:07;;;;;;;5.03;2.30;;;25.30;99.90;;;;;;4868001;29;20052;-84
2023/07/21 12:14:34;;;;;;;8.05;2.47;;;25.30;99.90;;;;;;4861117;29;20120;-83
2023/07/21 12:17:01;;;;;;;7.15;2.40;;;25.30;99.90;;;;;;4861689;29;20471;-84
2023/07/21 12:19:28;;;;;;;4.35;2.65;;;25.30;99.90;;;;;;4863730;29;20130;-84
2023/07/21 12:21:55;;;;;;;4.07;2.95;;;25.40;99.90;;;;;;4869367;29;20464;-84
2023/07/21 12:24:22;;;;;;;6.18;2.33;;;25.40;99.90;;;;;;4862692;29;20055;-83
2023/07/21 12:26:49;;;;;;;5.13;2.17;;;25.40;99.90;;;;;;4862583;29;20053;-84
2023/07/21 12:29:16;;;;;;;3.85;2.20;;;25.40;99.90;;;;;;4873505;29;20045;-83
2023/07/21 12:32:03;;;;;;;4.10;2.08;;;25.50;99.90;;;;;;4871445;29;20068;-82
2023/07/21 12:34:30;;;;;;;2.28;1.65;;;25.50;99.90;;;;;;4862556;29;20454;-84
2023/07/21 12:36:58;;;;;;;2.60;1.60;;;25.50;99.90;;;;;;4864568;29;20068;-84
2023/07/21 12:39:24;;;;;;;2.30;1.67;;;25.60;99.90;;;;;;4861004;29;20041;-84
2023/07/21 12:41:51;;;;;;;1.50;1.35;;;25.70;99.90;;;;;;4859873;29;20061;-84
2023/07/21 12:44:20;;;;;;;2.83;1.55;;;25.70;99.90;;;;;;4860222;29;20124;-85
2023/07/21 12:46:48;;;;;;;3.00;1.63;;;25.90;99.90;;;;;;4860803;29;20516;-87
2023/07/21 12:49:15;;;;;;;3.63;1.60;;;26.00;99.90;;;;;;4860307;29;20045;-85
2023/07/21 12:51:43;;;;;;;3.70;1.33;;;26.10;99.90;;;;;;4860730;29;20069;-82
2023/07/21 12:54:10;;;;;;;3.53;1.58;;;26.20;99.90;;;;;;4860279;29;20524;-85
2023/07/21 12:56:37;;;;;;;2.83;1.40;;;26.30;99.90;;;;;;4857757;29;20053;-85
2023/07/21 12:59:05;;;;;;;3.85;1.40;;;26.50;99.90;;;;;;4861350;29;20095;-85
2023/07/21 13:01:32;;;;;;;5.07;1.50;;;26.60;99.90;;;;;;4861148;29;20049;-84
2023/07/21 13:03:59;;;;;;;4.07;1.45;;;26.60;99.90;;;;;;4860657;29;20056;-86
2023/07/21 13:06:26;;;;;;;2.25;1.50;;;26.60;99.90;;;;;;4861153;29;20049;-85
2023/07/21 13:08:55;;;;;;;2.45;1.60;;;26.50;99.90;;;;;;4874837;29;20398;-86
2023/07/21 13:11:22;;;;;;;3.83;1.65;;;26.50;99.90;;;;;;4859374;29;20060;-85
2023/07/21 13:13:51;;;;;;;4.55;1.73;;;26.30;99.90;;;;;;4875393;29;20049;-84
2023/07/21 13:16:18;;;;;;;4.47;1.77;;;26.10;99.90;;;;;;4861852;29;20045;-85
2023/07/21 13:18:45;;;;;;;2.88;1.70;;;25.90;99.90;;;;;;4876529;29;20082;-84
2023/07/21 13:21:13;;;;;;;6.28;1.83;;;25.70;99.90;;;;;;4870400;29;20057;-84
2023/07/21 13:23:40;;;;;;;137.45;7.82;;;25.40;99.90;;;;;;4865940;29;20088;-85
2023/07/21 13:26:07;;;;;;;18.30;3.50;;;24.70;99.90;;;;;;4863771;29;20049;-84
2023/07/21 13:28:34;;;;;;;5.85;3.67;;;22.10;99.90;;;;;;4863426;29;20056;-84
2023/07/21 13:31:01;;;;;;;14.23;3.00;;;20.50;99.90;;;;;;4863990;29;20049;-85
2023/07/21 13:33:28;;;;;;;8.02;3.10;;;19.80;99.90;;;;;;4863904;29;20124;-84
2023/07/21 13:35:54;;;;;;;4.93;3.03;;;20.30;99.90;;;;;;4869022;29;20530;-84
2023/07/21 13:38:22;;;;;;;6.78;3.78;;;20.70;99.90;;;;;;4869820;29;20425;-83
2023/07/21 13:40:49;;;;;;;10.15;5.47;;;21.30;99.90;;;;;;4867237;29;20061;-84
2023/07/21 13:43:15;;;;;;;7.15;4.53;;;21.70;99.90;;;;;;4868787;29;20045;-84
2023/07/21 13:45:42;;;;;;;10.38;4.55;;;22.00;99.90;;;;;;4880142;29;20057;-84
2023/07/21 13:48:09;;;;;;;13.65;4.75;;;22.30;99.90;;;;;;4866712;29;20053;-83
2023/07/21 13:50:39;;;;;;;;;;;22.30;99.90;;;;;;4868500;29;20424;-84
2023/07/21 13:53:06;;;;;;;5.93;4.18;;;22.20;99.90;;;;;;4869870;29;20002;-84
2023/07/21 13:55:33;;;;;;;7.90;3.80;;;22.20;99.90;;;;;;4868068;29;20049;-84
2023/07/21 13:57:59;;;;;;;8.27;4.40;;;22.50;99.90;;;;;;4880119;29;20045;-84
2023/07/21 14:00:29;;;;;;;9.40;4.10;;;22.20;99.90;;;;;;4864815;29;20049;-83
2023/07/21 14:02:56;;;;;;;9.15;4.22;;;22.00;99.90;;;;;;4863195;29;20049;-84
2023/07/21 14:05:24;;;;;;;7.30;3.75;;;21.90;99.90;;;;;;4867499;29;20049;-83
2023/07/21 14:07:51;;;;;;;5.72;3.13;;;21.90;99.90;;;;;;4881640;29;20058;-84
2023/07/21 14:10:18;;;;;;;6.40;3.03;;;21.90;99.90;;;;;;4866179;29;20108;-84
2023/07/21 14:12:44;;;;;;;9.75;3.85;;;22.00;99.90;;;;;;4863795;29;20424;-84
2023/07/21 14:15:12;;;;;;;9.63;3.45;;;21.90;99.90;;;;;;4863271;29;20053;-85
2023/07/21 14:17:39;;;;;;;6.57;3.35;;;21.90;99.90;;;;;;4861571;29;20053;-84
2023/07/21 14:20:13;;;;;;;7.35;2.60;;;22.00;99.90;;;;;;4863779;29;20508;-83
2023/07/21 14:22:39;;;;;;;8.15;3.22;;;22.10;99.90;;;;;;4856591;29;20061;-83
2023/07/21 14:25:09;;;;;;;4.65;2.53;;;22.30;99.90;;;;;;4859212;29;20140;-84
2023/07/21 14:27:36;;;;;;;7.10;2.55;;;22.10;99.90;;;;;;4859454;29;20080;-84
2023/07/21 14:30:07;;;;;;;4.18;2.45;;;21.80;99.90;;;;;;4857104;29;20056;-84
2023/07/21 14:32:34;;;;;;;4.32;1.60;;;21.10;99.90;;;;;;4873100;29;20124;-84
2023/07/21 14:35:01;;;;;;;3.75;1.90;;;20.60;99.90;;;;;;4859971;29;20078;-83
2023/07/21 14:37:29;;;;;;;6.32;2.10;;;20.00;99.90;;;;;;4860849;29;20140;-84
2023/07/21 14:39:56;;;;;;;1.98;1.48;;;19.60;99.90;;;;;;4874593;29;20053;-83
2023/07/21 14:42:23;;;;;;;4.25;1.73;;;19.50;99.90;;;;;;4859550;29;20444;-83
2023/07/21 14:44:49;;;;;;;5.80;1.92;;;19.60;99.90;;;;;;4861702;29;20050;-83
2023/07/21 14:47:16;;;;;;;3.70;2.17;;;19.80;99.90;;;;;;4861418;29;20053;-84
2023/07/21 14:49:43;;;;;;;6.05;2.15;;;19.90;99.90;;;;;;4858151;29;20054;-83
2023/07/21 14:52:10;;;;;;;5.57;1.67;;;19.70;99.90;;;;;;4861207;29;20478;-82
2023/07/21 14:54:37;;;;;;;3.45;1.70;;;19.70;99.90;;;;;;4857208;29;20041;-84
2023/07/21 14:57:05;;;;;;;22.55;3.03;;;19.60;99.90;;;;;;4859824;29;20053;-83
2023/07/21 14:59:32;;;;;;;9.30;2.40;;;19.40;99.90;;;;;;4876312;29;20249;-83
2023/07/21 15:01:59;;;;;;;22.83;3.05;;;19.60;99.90;;;;;;4858577;29;20061;-84
2023/07/21 15:04:26;;;;;;;10.70;3.13;;;19.40;99.90;;;;;;4861236;29;20066;-84
2023/07/21 15:06:53;;;;;;;12.45;2.05;;;19.10;99.90;;;;;;4861371;29;20053;-83
2023/07/21 15:09:20;;;;;;;16.63;2.20;;;19.40;99.90;;;;;;4860443;29;20065;-83
2023/07/21 15:11:46;;;;;;;13.25;2.45;;;19.80;99.90;;;;;;4862171;29;20073;-83
2023/07/21 15:14:13;;;;;;;48.45;4.80;;;19.90;99.90;;;;;;4859456;29;20524;-83
2023/07/21 15:16:40;;;;;;;6.40;2.08;;;19.80;99.90;;;;;;4875276;29;20057;-83
2023/07/21 15:19:07;;;;;;;3.05;1.45;;;19.40;99.90;;;;;;4866397;29;20071;-82
2023/07/21 15:21:34;;;;;;;5.57;1.50;;;19.30;99.90;;;;;;4864543;29;20042;-83
2023/07/21 15:24:01;;;;;;;6.07;1.60;;;19.30;99.90;;;;;;4867047;29;20061;-82
2023/07/21 15:26:28;;;;;;;3.05;1.58;;;19.50;99.90;;;;;;4866890;29;20097;-83
2023/07/21 15:28:55;;;;;;;2.10;1.45;;;19.60;99.90;;;;;;4880594;29;20045;-83
2023/07/21 15:31:22;;;;;;;3.17;1.50;;;19.80;99.90;;;;;;4866522;29;20049;-83
2023/07/21 15:33:48;;;;;;;3.17;1.45;;;19.80;99.90;;;;;;4868257;29;20056;-84
2023/07/21 15:36:15;;;;;;;3.08;1.67;;;19.60;99.90;;;;;;4865119;29;20049;-84
2023/07/21 15:38:48;;;;;;;2.67;1.50;;;19.60;99.90;;;;;;4864419;29;20045;-83
2023/07/21 15:41:15;;;;;;;5.03;1.33;;;19.80;99.90;;;;;;4862612;29;20050;-83
2023/07/21 15:43:41;;;;;;;5.57;1.50;;;19.90;99.90;;;;;;4862507;29;20480;-83
2023/07/21 15:46:08;;;;;;;4.65;1.52;;;20.00;99.90;;;;;;4874439;29;20537;-83
2023/07/21 15:48:36;;;;;;;2.58;1.40;;;19.90;99.90;;;;;;4861119;29;20081;-83
2023/07/21 15:51:04;;;;;;;5.60;1.85;;;19.80;99.90;;;;;;4863892;29;20049;-82
2023/07/21 15:53:31;;;;;;;2.78;1.60;;;19.80;99.90;;;;;;4862485;29;20046;-83
2023/07/21 15:55:58;;;;;;;4.68;1.48;;;20.00;99.90;;;;;;4864152;29;20072;-84
2023/07/21 15:58:24;;;;;;;3.72;1.30;;;19.70;99.90;;;;;;4865298;29;20106;-82
2023/07/21 16:00:59;;;;;;;1.85;1.30;;;19.60;99.90;;;;;;4871697;29;20109;-84
2023/07/21 16:03:26;;;;;;;3.08;1.63;;;20.00;99.90;;;;;;4865988;29;20055;-83
2023/07/21 16:05:54;;;;;;;2.85;1.23;;;20.10;99.90;;;;;;4870741;29;20067;-82
2023/07/21 16:08:25;;;;;;;3.00;1.33;;;20.30;99.90;;;;;;4867998;29;20049;-83
2023/07/21 16:10:52;;;;;;;3.35;1.33;;;20.40;99.90;;;;;;4867531;29;20430;-83
2023/07/21 16:13:20;;;;;;;2.05;1.23;;;20.30;99.90;;;;;;4868131;29;20058;-84
2023/07/21 16:15:48;;;;;;;3.47;1.38;;;20.40;99.90;;;;;;4873288;29;20053;-83
2023/07/21 16:18:15;;;;;;;3.33;1.30;;;20.60;99.90;;;;;;4875319;29;20053;-83
2023/07/21 16:20:45;;;;;;;1.90;1.27;;;20.60;99.90;;;;;;4871728;29;20064;-83
2023/07/21 16:23:12;;;;;;;2.80;1.50;;;20.60;99.90;;;;;;4883102;29;20105;-83
2023/07/21 16:25:39;;;;;;;2.35;1.15;;;20.40;99.90;;;;;;4870229;29;20057;-83
2023/07/21 16:28:06;;;;;;;2.22;1.70;;;20.50;99.90;;;;;;4883843;29;20054;-83
2023/07/21 16:30:33;;;;;;;2.88;1.40;;;20.60;99.90;;;;;;4872429;29;20493;-83
2023/07/21 16:33:00;;;;;;;3.40;1.42;;;20.80;99.90;;;;;;4869733;29;20070;-82
2023/07/21 16:35:27;;;;;;;2.42;1.17;;;20.50;99.90;;;;;;4885450;29;20113;-83
2023/07/21 16:37:53;;;;;;;4.20;1.40;;;20.80;99.90;;;;;;4869636;29;20053;-83
2023/07/21 16:40:22;;;;;;;2.58;1.45;;;20.40;99.90;;;;;;4868801;29;20052;-84
2023/07/21 16:42:48;;;;;;;3.05;1.30;;;20.50;99.90;;;;;;4869223;29;20097;-83
2023/07/21 16:45:15;;;;;;;2.42;1.20;;;20.60;99.90;;;;;;4886784;29;20429;-83
2023/07/21 16:47:42;;;;;;;3.42;1.50;;;20.50;99.90;;;;;;4870680;29;20053;-83
2023/07/21 16:50:10;;;;;;;2.85;1.30;;;20.60;99.90;;;;;;4870703;29;20077;-83
2023/07/21 16:52:38;;;;;;;2.65;1.70;;;20.70;99.90;;;;;;4869776;29;20048;-83
2023/07/21 16:55:06;;;;;;;2.90;1.45;;;20.90;99.90;;;;;;4865109;29;20056;-83
2023/07/21 16:57:33;;;;;;;3.00;1.10;;;21.10;99.90;;;;;;4873000;29;20049;-83
2023/07/21 17:00:09;;;;;;;3.55;1.35;;;21.30;99.90;;;;;;4871256;29;20072;-83
2023/07/21 17:02:36;;;;;;;1.23;1.00;;;21.00;99.90;;;;;;4870064;29;20054;-84
2023/07/21 17:05:03;;;;;;;1.73;1.20;;;20.90;99.90;;;;;;4868145;29;20057;-84
2023/07/21 17:07:50;;;;;;;3.72;1.33;;;21.20;99.90;;;;;;4867226;29;20389;-83
2023/07/21 17:10:17;;;;;;;1.83;1.17;;;21.10;99.90;;;;;;4868282;29;20057;-83
2023/07/21 17:12:44;;;;;;;1.55;1.00;;;20.80;99.90;;;;;;4869407;29;20049;-83
2023/07/21 17:15:12;;;;;;;1.50;1.05;;;21.20;99.90;;;;;;4883823;29;20049;-83
2023/07/21 17:17:39;;;;;;;2.33;1.20;;;21.30;99.90;;;;;;4871069;29;20054;-84
2023/07/21 17:20:11;;;;;;;1.80;1.23;;;21.20;99.90;;;;;;4882237;29;20136;-83
2023/07/21 17:22:42;;;;;;;1.40;1.00;;;21.20;99.90;;;;;;4867092;29;20045;-83
2023/07/21 17:25:09;;;;;;;2.08;1.40;;;20.90;99.90;;;;;;4870483;29;20057;-82
2023/07/21 17:27:36;;;;;;;1.70;1.10;;;21.10;99.90;;;;;;4875971;29;20092;-83
2023/07/21 17:30:03;;;;;;;1.75;1.45;;;21.20;99.90;;;;;;4865517;29;20050;-82
2023/07/21 17:32:30;;;;;;;2.00;1.33;;;21.30;99.90;;;;;;4876914;29;20059;-81
2023/07/21 17:34:57;;;;;;;2.33;1.23;;;20.90;99.90;;;;;;4879592;29;20113;-83
2023/07/21 17:37:24;;;;;;;2.85;1.30;;;21.30;99.90;;;;;;4881572;29;20058;-82
2023/07/21 17:39:51;;;;;;;2.47;1.10;;;21.70;99.90;;;;;;4896632;29;20049;-82
2023/07/21 17:42:18;;;;;;;2.53;1.20;;;21.60;99.90;;;;;;4892331;29;20056;-83
2023/07/21 17:44:44;;;;;;;1.55;0.88;;;21.30;99.90;;;;;;4869814;29;20626;-82
2023/07/21 17:47:11;;;;;;;1.73;1.20;;;21.00;99.90;;;;;;4870721;29;20049;-82
2023/07/21 17:49:38;;;;;;;2.50;1.20;;;20.70;99.90;;;;;;4869122;29;20042;-83
2023/07/21 17:52:05;;;;;;;5.10;1.42;;;20.60;99.90;;;;;;4868587;29;20053;-82
2023/07/21 17:54:32;;;;;;;3.88;1.40;;;20.70;99.90;;;;;;4887013;29;20045;-82
2023/07/21 17:56:59;;;;;;;1.55;1.40;;;20.50;99.90;;;;;;4865243;29;20053;-82
2023/07/21 17:59:25;;;;;;;2.22;1.42;;;20.50;99.90;;;;;;4869755;29;20061;-83
2023/07/21 18:01:52;;;;;;;1.90;1.23;;;20.60;99.90;;;;;;4867078;29;20055;-82
2023/07/21 18:04:19;;;;;;;2.90;1.27;;;20.70;99.90;;;;;;4868846;29;20486;-82
2023/07/21 18:06:45;;;;;;;2.63;1.40;;;20.80;99.90;;;;;;4867608;29;20053;-82
2023/07/21 18:09:12;;;;;;;2.05;1.00;;;20.80;99.90;;;;;;4869921;29;20049;-83
2023/07/21 18:11:39;;;;;;;2.40;1.35;;;21.00;99.90;;;;;;4861773;29;20061;-83
2023/07/21 18:14:06;;;;;;;1.90;1.20;;;21.10;99.90;;;;;;4861305;29;20057;-83
2023/07/21 18:16:32;;;;;;;3.03;1.27;;;21.20;99.90;;;;;;4864217;29;20050;-83
2023/07/21 18:18:59;;;;;;;1.92;1.00;;;21.20;99.90;;;;;;4865943;29;20105;-83
2023/07/21 18:21:26;;;;;;;1.98;1.45;;;21.30;99.90;;;;;;4878700;29;20045;-83
2023/07/21 18:23:53;;;;;;;1.67;1.13;;;21.40;99.90;;;;;;4865665;29;20053;-83
2023/07/21 18:26:23;;;;;;;3.35;1.35;;;21.40;99.90;;;;;;4868603;29;20064;-82
2023/07/21 18:28:50;;;;;;;2.90;1.30;;;21.50;99.90;;;;;;4867803;29;20060;-84
2023/07/21 18:31:17;;;;;;;1.42;1.20;;;21.50;99.90;;;;;;4870790;29;20076;-83
2023/07/21 18:33:44;;;;;;;1.63;1.20;;;21.50;99.90;;;;;;4863488;29;20073;-83
2023/07/21 18:36:12;;;;;;;4.13;1.42;;;21.50;99.90;;;;;;4868759;29;20045;-83
2023/07/21 18:38:44;;;;;;;1.80;1.27;;;21.50;99.90;;;;;;4869916;29;20085;-84
2023/07/21 18:41:14;;;;;;;5.63;1.70;;;21.50;99.90;;;;;;4870584;29;20050;-83
2023/07/21 18:43:41;;;;;;;;;;;21.50;99.90;;;;;;4866725;29;20089;-81
2023/07/21 18:46:08;;;;;;;2.58;1.20;;;21.50;99.90;;;;;;4887114;29;19946;-81
2023/07/21 18:48:35;;;;;;;2.50;1.20;;;21.50;99.90;;;;;;4870271;29;20065;-81
2023/07/21 18:51:02;;;;;;;3.67;1.35;;;21.50;99.90;;;;;;4869141;29;20053;-82
2023/07/21 18:53:28;;;;;;;1.98;1.15;;;21.50;99.90;;;;;;4870702;29;20121;-82
2023/07/21 18:55:55;;;;;;;3.45;1.30;;;21.50;99.90;;;;;;4870406;29;20045;-83
2023/07/21 18:58:22;;;;;;;3.00;1.30;;;21.40;99.90;;;;;;4882975;29;20049;-81
2023/07/21 19:00:49;;;;;;;3.53;1.40;;;21.30;99.90;;;;;;4869131;29;20107;-81
2023/07/21 19:03:16;;;;;;;6.15;1.40;;;21.30;99.90;;;;;;4868959;29;20054;-82
2023/07/21 19:05:43;;;;;;;2.35;1.33;;;21.20;99.90;;;;;;4871186;29;20129;-82
2023/07/21 19:08:09;;;;;;;3.03;1.27;;;21.20;99.90;;;;;;4877601;29;20057;-83
2023/07/21 19:10:39;;;;;;;3.10;1.60;;;21.20;99.90;;;;;;4871718;29;20045;-82
2023/07/21 19:13:06;;;;;;;6.60;1.83;;;21.20;99.90;;;;;;4866197;29;20050;-83
2023/07/21 19:15:32;;;;;;;2.35;1.40;;;21.20;99.90;;;;;;4869823;29;20049;-82
2023/07/21 19:17:59;;;;;;;2.15;1.40;;;21.20;99.90;;;;;;4865839;29;20061;-82
2023/07/21 19:20:26;;;;;;;2.53;1.27;;;21.20;99.90;;;;;;4867157;29;20057;-83
2023/07/21 19:22:52;;;;;;;3.08;1.23;;;21.20;99.90;;;;;;4865553;29;20117;-80
2023/07/21 19:25:19;;;;;;;2.33;1.50;;;21.20;99.90;;;;;;4871672;29;20054;-83
2023/07/21 19:27:47;;;;;;;2.30;1.27;;;21.10;99.90;;;;;;4866231;29;20462;-82
2023/07/21 19:30:14;;;;;;;3.08;1.48;;;21.10;99.90;;;;;;4882258;29;20057;-82
2023/07/21 19:32:42;;;;;;;2.35;1.33;;;21.10;99.90;;;;;;4866610;29;20132;-83
2023/07/21 19:35:09;;;;;;;2.83;1.40;;;21.10;99.90;;;;;;4867972;29;20049;-84
2023/07/21 19:37:36;;;;;;;2.53;1.33;;;21.00;99.90;;;;;;4866836;29;20060;-82